createdAt,value
2022-10-30T00:01:06.479Z,53.13
2022-10-30T00:04:09.449Z,55.42
2022-10-30T00:07:13.108Z,56.97
2022-10-30T00:10:17.984Z,60.92
2022-10-30T00:13:22.205Z,60.77
2022-10-30T00:16:27.284Z,52.25
2022-10-30T00:19:30.669Z,50.55
2022-10-30T00:22:35.858Z,51.67
2022-10-30T00:25:39.614Z,48.60
2022-10-30T00:28:43.368Z,43.67
2022-10-30T00:31:47.381Z,41.35
2022-10-30T00:34:51.040Z,37.53
2022-10-30T00:37:54.174Z,32.90
2022-10-30T00:40:57.866Z,34.10
2022-10-30T00:44:01.891Z,44.63
2022-10-30T00:47:16.863Z,39.40
2022-10-30T00:50:23.185Z,40.92
2022-10-30T00:53:27.927Z,55.80
2022-10-30T00:56:32.907Z,46.42
2022-10-30T00:59:38.446Z,37.50
2022-10-30T01:02:43.866Z,42.22
2022-10-30T01:05:51.901Z,40.42
2022-10-30T01:08:59.872Z,40.40
2022-10-30T01:12:03.951Z,39.17
2022-10-30T01:15:08.647Z,42.27
2022-10-30T01:18:28.277Z,45.72
2022-10-30T01:21:51.400Z,48.55
2022-10-30T01:25:24.302Z,45.35
2022-10-30T01:29:12.502Z,46.58
2022-10-30T01:32:43.365Z,39.50
2022-10-30T01:36:02.186Z,38.42
2022-10-30T01:39:13.896Z,47.30
2022-10-30T01:42:47.682Z,47.50
2022-10-30T01:45:53.808Z,43.53
2022-10-30T01:49:12.882Z,51.50
2022-10-30T01:52:24.567Z,48.70
2022-10-30T01:55:42.501Z,48.83
2022-10-30T01:59:08.016Z,41.40
2022-10-30T02:02:12.690Z,60.72
2022-10-30T02:05:29.058Z,40.23
2022-10-30T02:08:32.920Z,39.08
2022-10-30T02:11:40.275Z,35.05
2022-10-30T02:14:48.712Z,41.95
2022-10-30T02:17:56.622Z,39.08
2022-10-30T02:21:00.805Z,43.97
2022-10-30T02:24:04.547Z,50.55
2022-10-30T02:27:07.617Z,53.55
2022-10-30T02:30:12.697Z,48.20
2022-10-30T02:33:15.765Z,51.92
2022-10-30T02:36:20.659Z,53.27
2022-10-30T02:39:25.164Z,52.50
2022-10-30T02:42:29.241Z,46.10
2022-10-30T02:45:33.377Z,45.85
2022-10-30T02:48:38.240Z,44.45
2022-10-30T02:51:41.900Z,51.97
2022-10-30T02:54:45.265Z,46.80
2022-10-30T02:57:49.548Z,50.47
2022-10-30T03:00:54.497Z,45.45
2022-10-30T03:03:58.234Z,35.35
2022-10-30T03:07:02.244Z,51.33
2022-10-30T03:10:06.214Z,36.47
2022-10-30T03:13:11.818Z,45.00
2022-10-30T03:16:18.517Z,41.05
2022-10-30T03:19:22.516Z,50.40
2022-10-30T03:22:27.719Z,46.20
2022-10-30T03:25:31.812Z,37.40
2022-10-30T03:28:36.623Z,30.42
2022-10-30T03:31:40.930Z,40.50
2022-10-30T03:35:07.394Z,34.22
2022-10-30T03:38:10.363Z,39.27
2022-10-30T03:41:14.483Z,31.55
2022-10-30T03:44:18.040Z,17.92
2022-10-30T03:47:21.196Z,21.63
2022-10-30T03:50:24.515Z,23.83
2022-10-30T03:53:30.020Z,29.23
2022-10-30T03:56:34.247Z,35.13
2022-10-30T03:59:37.857Z,40.72
2022-10-30T04:03:07.161Z,35.55
2022-10-30T04:06:15.003Z,29.38
2022-10-30T04:09:20.245Z,31.97
2022-10-30T04:12:23.404Z,33.65
2022-10-30T04:15:27.252Z,27.17
2022-10-30T04:18:30.907Z,31.83
2022-10-30T04:21:34.650Z,27.45
2022-10-30T04:24:40.197Z,23.33
2022-10-30T04:27:44.852Z,21.77
2022-10-30T04:30:49.671Z,30.80
2022-10-30T04:33:54.306Z,30.33
2022-10-30T04:36:58.341Z,37.67
2022-10-30T04:40:02.308Z,34.10
2022-10-30T04:43:17.892Z,27.83
2022-10-30T04:46:25.505Z,27.95
2022-10-30T04:49:31.827Z,24.02
2022-10-30T04:52:36.925Z,20.35
2022-10-30T04:55:40.556Z,17.47
2022-10-30T04:58:46.324Z,23.65
2022-10-30T05:01:50.113Z,19.55
2022-10-30T05:04:54.057Z,14.77
2022-10-30T05:07:59.147Z,19.92
2022-10-30T05:11:05.990Z,21.40
2022-10-30T05:14:09.688Z,23.17
2022-10-30T05:17:14.479Z,21.40
2022-10-30T05:20:19.422Z,20.60
2022-10-30T05:23:23.439Z,18.10
2022-10-30T05:26:26.927Z,15.80
2022-10-30T05:29:31.017Z,15.95
2022-10-30T05:32:35.217Z,27.13
2022-10-30T05:35:39.235Z,19.20
2022-10-30T05:38:42.426Z,16.98
2022-10-30T05:41:54.534Z,17.17
2022-10-30T05:45:01.630Z,16.85
2022-10-30T05:48:08.446Z,13.35
2022-10-30T05:51:18.581Z,18.10
2022-10-30T05:54:28.294Z,24.00
2022-10-30T05:57:46.439Z,22.23
2022-10-30T06:00:50.606Z,25.10
2022-10-30T06:04:05.592Z,22.73
2022-10-30T06:07:09.733Z,19.50
2022-10-30T06:10:13.836Z,22.17
2022-10-30T06:13:34.677Z,18.30
2022-10-30T06:16:49.302Z,25.55
2022-10-30T06:20:08.762Z,30.02
2022-10-30T06:23:30.269Z,23.58
2022-10-30T06:26:41.994Z,29.98
2022-10-30T06:29:49.712Z,22.93
2022-10-30T06:33:04.855Z,25.02
2022-10-30T06:36:09.295Z,24.98
2022-10-30T06:39:13.674Z,25.40
2022-10-30T06:42:27.638Z,28.05
2022-10-30T06:45:41.868Z,28.70
2022-10-30T06:48:45.694Z,26.23
2022-10-30T06:51:51.757Z,22.55
2022-10-30T06:54:55.066Z,29.85
2022-10-30T06:58:39.895Z,28.33
2022-10-30T07:01:46.469Z,40.10
2022-10-30T07:04:52.911Z,34.97
2022-10-30T07:07:57.994Z,29.23
2022-10-30T07:11:01.652Z,24.63
2022-10-30T07:14:23.952Z,38.28
2022-10-30T07:17:36.170Z,24.77
2022-10-30T07:20:46.663Z,32.38
2022-10-30T07:23:50.212Z,30.40
2022-10-30T07:27:04.658Z,34.63
2022-10-30T07:30:23.683Z,34.80
2022-10-30T07:33:44.799Z,32.27
2022-10-30T07:37:01.955Z,36.45
2022-10-30T07:40:15.764Z,21.27
2022-10-30T07:43:25.108Z,12.98
2022-10-30T07:46:57.412Z,12.93
2022-10-30T07:50:11.779Z,11.07
2022-10-30T07:53:16.093Z,15.57
2022-10-30T07:56:21.905Z,16.05
2022-10-30T07:59:28.141Z,16.48
2022-10-30T08:02:58.464Z,15.93
2022-10-30T08:06:26.293Z,23.10
2022-10-30T08:09:31.269Z,14.75
2022-10-30T08:12:35.938Z,15.15
2022-10-30T08:15:40.451Z,16.48
2022-10-30T08:18:45.066Z,17.17
2022-10-30T08:21:48.441Z,12.30
2022-10-30T08:24:54.764Z,19.25
2022-10-30T08:28:00.484Z,16.50
2022-10-30T08:31:08.455Z,16.55
2022-10-30T08:34:33.413Z,27.35
2022-10-30T08:37:41.864Z,25.53
2022-10-30T08:40:47.118Z,17.55
2022-10-30T08:43:51.970Z,20.33
2022-10-30T08:46:56.188Z,32.88
2022-10-30T08:50:00.909Z,33.47
2022-10-30T08:53:10.108Z,19.53
2022-10-30T08:56:13.360Z,18.42
2022-10-30T08:59:33.615Z,10.50
2022-10-30T09:02:40.096Z,14.95
2022-10-30T09:06:03.131Z,15.02
2022-10-30T09:09:26.778Z,27.43
2022-10-30T09:12:36.412Z,36.97
2022-10-30T09:15:40.010Z,38.90
2022-10-30T09:18:44.257Z,34.45
2022-10-30T09:21:48.826Z,37.67
2022-10-30T09:24:52.976Z,27.60
2022-10-30T09:28:16.533Z,27.17
2022-10-30T09:31:38.883Z,30.42
2022-10-30T09:34:45.153Z,40.20
2022-10-30T09:37:57.679Z,28.05
2022-10-30T09:41:25.640Z,34.10
2022-10-30T09:45:27.889Z,22.13
2022-10-30T09:48:35.829Z,30.88
2022-10-30T09:51:56.336Z,37.10
2022-10-30T09:55:09.436Z,29.02
2022-10-30T09:58:22.305Z,34.33
2022-10-30T10:01:30.115Z,25.08
2022-10-30T10:04:50.906Z,24.17
2022-10-30T10:08:30.310Z,21.60
2022-10-30T10:12:10.705Z,16.23
2022-10-30T10:15:33.986Z,14.83
2022-10-30T10:18:46.342Z,14.20
2022-10-30T10:21:54.203Z,11.45
2022-10-30T10:24:58.243Z,12.60
2022-10-30T10:28:22.514Z,13.55
2022-10-30T10:31:44.000Z,15.27
2022-10-30T10:35:05.132Z,19.65
2022-10-30T10:38:35.574Z,20.92
2022-10-30T10:42:13.936Z,17.95
2022-10-30T10:45:37.526Z,16.00
2022-10-30T10:48:46.425Z,21.10
2022-10-30T10:52:20.097Z,17.55
2022-10-30T10:55:29.491Z,15.73
2022-10-30T10:58:40.878Z,19.05
2022-10-30T11:02:02.452Z,19.20
2022-10-30T11:05:17.008Z,16.73
2022-10-30T11:08:23.687Z,15.45
2022-10-30T11:11:28.991Z,17.70
2022-10-30T11:14:33.078Z,28.77
2022-10-30T11:17:46.175Z,16.95
2022-10-30T11:21:04.273Z,39.87
2022-10-30T11:24:34.208Z,21.00
2022-10-30T11:27:37.973Z,21.30
2022-10-30T11:30:41.665Z,26.00
2022-10-30T11:33:45.781Z,22.25
2022-10-30T11:36:50.858Z,23.40
2022-10-30T11:40:22.413Z,25.48
2022-10-30T11:43:26.712Z,23.63
2022-10-30T11:46:31.251Z,20.35
2022-10-30T11:49:48.905Z,20.05
2022-10-30T11:53:15.951Z,20.43
2022-10-30T11:56:23.666Z,19.42
2022-10-30T11:59:27.915Z,20.38
2022-10-30T12:02:43.076Z,32.10
2022-10-30T12:05:50.369Z,28.50
2022-10-30T12:09:16.392Z,25.97
2022-10-30T12:12:23.735Z,28.20
2022-10-30T12:15:28.602Z,32.50
2022-10-30T12:18:34.083Z,36.70
2022-10-30T12:21:45.199Z,35.90
2022-10-30T12:24:48.628Z,46.33
2022-10-30T12:28:14.735Z,54.47
2022-10-30T12:31:26.843Z,52.45
2022-10-30T12:34:57.153Z,46.83
2022-10-30T12:38:03.958Z,52.45
2022-10-30T12:41:15.424Z,53.17
2022-10-30T12:44:28.916Z,49.20
2022-10-30T12:47:53.398Z,47.92
2022-10-30T12:51:32.894Z,45.08
2022-10-30T12:54:55.299Z,45.08
2022-10-30T12:58:38.029Z,35.60
2022-10-30T13:02:14.736Z,41.28
2022-10-30T13:05:38.191Z,36.50
2022-10-30T13:09:18.769Z,36.83
2022-10-30T13:12:52.959Z,32.70
2022-10-30T13:15:58.955Z,35.73
2022-10-30T13:19:03.293Z,36.25
2022-10-30T13:22:19.377Z,53.88
2022-10-30T13:25:31.187Z,68.72
2022-10-30T13:29:27.217Z,40.40
2022-10-30T13:32:54.633Z,36.10
2022-10-30T13:36:11.600Z,33.63
2022-10-30T13:39:28.785Z,47.00
2022-10-30T13:43:13.356Z,42.63
2022-10-30T13:46:26.780Z,42.63
2022-10-30T13:49:39.407Z,48.83
2022-10-30T13:52:49.048Z,38.13
2022-10-30T13:55:53.484Z,45.15
2022-10-30T13:59:13.651Z,55.88
2022-10-30T14:02:37.700Z,58.58
2022-10-30T14:05:49.982Z,49.17
2022-10-30T14:09:06.570Z,38.03
2022-10-30T14:12:47.595Z,22.67
2022-10-30T14:15:55.839Z,19.60
2022-10-30T14:19:08.156Z,13.23
2022-10-30T14:22:25.539Z,15.93
2022-10-30T14:25:28.895Z,11.70
2022-10-30T14:28:40.660Z,9.95
2022-10-30T14:31:44.629Z,11.23
2022-10-30T14:34:59.277Z,9.35
2022-10-30T14:38:09.093Z,6.37
2022-10-30T14:41:22.817Z,5.45
2022-10-30T14:44:35.341Z,5.13
2022-10-30T14:48:17.528Z,6.80
2022-10-30T14:51:31.693Z,5.13
2022-10-30T14:55:07.495Z,7.13
2022-10-30T14:58:23.270Z,6.13
2022-10-30T15:02:03.562Z,7.55
2022-10-30T15:05:20.479Z,6.13
2022-10-30T15:08:48.274Z,6.35
2022-10-30T15:12:13.703Z,8.43
2022-10-30T15:15:21.844Z,7.60
2022-10-30T15:18:30.325Z,6.75
2022-10-30T15:21:43.529Z,12.45
2022-10-30T15:24:48.171Z,18.15
2022-10-30T15:27:55.994Z,19.37
2022-10-30T15:31:08.265Z,9.90
2022-10-30T15:34:24.268Z,14.20
2022-10-30T15:37:28.748Z,14.57
2022-10-30T15:40:34.646Z,5.68
2022-10-30T15:43:42.640Z,6.00
2022-10-30T15:46:50.782Z,6.65
2022-10-30T15:49:56.378Z,9.45
2022-10-30T15:53:00.886Z,5.05
2022-10-30T15:56:08.248Z,6.43
2022-10-30T15:59:24.918Z,4.97
2022-10-30T16:02:28.478Z,4.75
2022-10-30T16:05:32.591Z,6.90
2022-10-30T16:08:44.954Z,5.53
2022-10-30T16:11:49.455Z,5.32
2022-10-30T16:14:52.786Z,5.27
2022-10-30T16:18:24.661Z,5.20
2022-10-30T16:21:32.099Z,6.55
2022-10-30T16:24:36.697Z,5.72
2022-10-30T16:27:47.133Z,6.63
2022-10-30T16:30:51.535Z,6.47
2022-10-30T16:33:54.743Z,6.03
2022-10-30T16:36:58.396Z,7.30
2022-10-30T16:40:06.558Z,7.05
2022-10-30T16:43:26.529Z,5.90
2022-10-30T16:46:37.022Z,5.27
2022-10-30T16:49:49.679Z,7.25
2022-10-30T16:52:53.728Z,5.88
2022-10-30T16:55:59.781Z,5.32
2022-10-30T16:59:27.431Z,6.72
2022-10-30T17:02:36.907Z,5.80
2022-10-30T17:05:44.136Z,5.50
2022-10-30T17:08:48.122Z,6.07
2022-10-30T17:12:21.274Z,7.72
2022-10-30T17:15:25.401Z,6.53
2022-10-30T17:18:33.662Z,4.97
2022-10-30T17:21:41.491Z,13.25
2022-10-30T17:24:45.536Z,8.35
2022-10-30T17:27:51.085Z,7.50
2022-10-30T17:30:55.020Z,9.25
2022-10-30T17:34:20.071Z,5.03
2022-10-30T17:37:23.026Z,6.32
2022-10-30T17:40:26.835Z,6.75
2022-10-30T17:43:32.877Z,8.55
2022-10-30T17:46:36.621Z,5.13
2022-10-30T17:49:41.167Z,7.57
2022-10-30T17:52:44.140Z,6.38
2022-10-30T17:55:51.722Z,5.32
2022-10-30T17:58:57.402Z,7.05
2022-10-30T18:02:01.840Z,6.32
2022-10-30T18:05:15.132Z,6.73
2022-10-30T18:08:18.828Z,5.72
2022-10-30T18:11:24.949Z,6.95
2022-10-30T18:14:28.491Z,7.40
2022-10-30T18:17:31.382Z,6.00
2022-10-30T18:20:34.494Z,4.40
2022-10-30T18:23:53.834Z,5.18
2022-10-30T18:26:59.112Z,7.80
2022-10-30T18:30:03.134Z,6.97
2022-10-30T18:33:06.826Z,6.65
2022-10-30T18:36:19.557Z,6.10
2022-10-30T18:39:23.114Z,4.82
2022-10-30T18:42:26.285Z,5.60
2022-10-30T18:45:34.558Z,4.75
2022-10-30T18:48:38.704Z,8.63
2022-10-30T18:51:42.442Z,6.30
2022-10-30T18:54:47.547Z,10.90
2022-10-30T18:57:52.181Z,8.48
2022-10-30T19:04:22.102Z,5.95
2022-10-30T19:07:26.264Z,5.27
2022-10-30T19:10:31.896Z,5.03
2022-10-30T19:13:34.932Z,5.00
2022-10-30T19:16:38.630Z,6.40
2022-10-30T19:19:43.248Z,7.90
2022-10-30T19:22:46.818Z,4.57
2022-10-30T19:25:51.149Z,3.95
2022-10-30T19:28:54.124Z,5.05
2022-10-30T19:31:57.784Z,5.40
2022-10-30T19:35:01.497Z,7.72
2022-10-30T19:38:08.486Z,6.00
2022-10-30T19:41:11.673Z,6.55
2022-10-30T19:44:14.526Z,4.90
2022-10-30T19:47:17.983Z,5.60
2022-10-30T19:50:37.963Z,6.18
2022-10-30T19:53:41.617Z,6.70
2022-10-30T19:56:45.296Z,4.28
2022-10-30T19:59:48.564Z,4.22
2022-10-30T20:02:54.831Z,6.30
2022-10-30T20:05:57.769Z,4.57
2022-10-30T20:09:02.960Z,3.23
2022-10-30T20:12:07.728Z,5.78
2022-10-30T20:15:18.616Z,8.30
2022-10-30T20:18:23.942Z,6.72
2022-10-30T20:21:28.352Z,5.32
2022-10-30T20:24:31.206Z,4.80
2022-10-30T20:27:34.062Z,6.63
2022-10-30T20:30:37.981Z,5.25
2022-10-30T20:33:41.394Z,6.32
2022-10-30T20:36:45.646Z,5.95
2022-10-30T20:39:52.211Z,6.33
2022-10-30T20:42:59.995Z,6.88
2022-10-30T20:46:07.823Z,5.72
2022-10-30T20:49:17.666Z,5.30
2022-10-30T20:52:21.805Z,5.00
2022-10-30T20:55:24.705Z,8.63
2022-10-30T20:58:27.908Z,6.40
2022-10-30T21:01:31.394Z,5.50
2022-10-30T21:04:34.544Z,8.00
2022-10-30T21:07:39.546Z,8.77
2022-10-30T21:10:43.125Z,7.63
2022-10-30T21:13:46.505Z,5.75
2022-10-30T21:16:50.128Z,6.53
2022-10-30T21:19:54.244Z,7.75
2022-10-30T21:22:57.898Z,8.45
2022-10-30T21:26:02.470Z,5.87
2022-10-30T21:29:06.223Z,9.05
2022-10-30T21:32:09.329Z,7.70
2022-10-30T21:35:12.345Z,7.10
2022-10-30T21:38:15.768Z,6.97
2022-10-30T21:41:21.612Z,9.47
2022-10-30T21:44:25.339Z,9.00
2022-10-30T21:47:29.511Z,7.85
2022-10-30T21:50:33.368Z,9.75
2022-10-30T21:53:38.778Z,9.68
2022-10-30T21:56:42.395Z,7.27
2022-10-30T21:59:46.501Z,7.55
2022-10-30T22:02:50.122Z,6.50
2022-10-30T22:05:53.506Z,10.18
2022-10-30T22:08:57.502Z,10.68
2022-10-30T22:12:00.485Z,7.57
2022-10-30T22:15:03.733Z,6.75
2022-10-30T22:18:07.159Z,5.53
2022-10-30T22:21:13.276Z,5.63
2022-10-30T22:24:17.904Z,6.35
2022-10-30T22:27:21.619Z,4.93
2022-10-30T22:30:24.984Z,4.22
2022-10-30T22:33:30.686Z,4.53
2022-10-30T22:36:34.911Z,4.18
2022-10-30T22:39:38.487Z,4.47
2022-10-30T22:42:41.903Z,3.40
2022-10-30T22:45:45.622Z,4.68
2022-10-30T22:48:49.755Z,4.15
2022-10-30T22:51:52.714Z,5.57
2022-10-30T22:54:55.644Z,5.25
2022-10-30T22:57:58.969Z,6.97
2022-10-30T23:01:10.901Z,5.72
2022-10-30T23:04:17.966Z,4.57
2022-10-30T23:07:21.932Z,5.50
2022-10-30T23:10:24.897Z,5.45
2022-10-30T23:13:29.368Z,4.00
2022-10-30T23:16:32.717Z,5.72
2022-10-30T23:19:36.735Z,5.50
2022-10-30T23:22:39.734Z,5.10
2022-10-30T23:25:43.550Z,5.10
2022-10-30T23:28:48.197Z,6.47
2022-10-30T23:31:51.064Z,4.60
2022-10-30T23:34:54.795Z,4.50
2022-10-30T23:37:58.505Z,6.68
2022-10-30T23:41:02.563Z,5.78
2022-10-30T23:44:08.247Z,4.90
2022-10-30T23:47:12.599Z,5.55
2022-10-30T23:50:17.103Z,6.40
2022-10-30T23:53:21.013Z,6.90
2022-10-30T23:56:25.405Z,5.82
2022-10-30T23:59:29.588Z,8.17
